Flight Track Log - Related Links

Times and Time Zones

All times are in EDT time to prevent confusion due to time zone crossing. See the UAL4336 flight status page for this flight to view local times or setup timezone preferences in your user account.

Time Position Orientation Groundspeed Altitude Reporting Facility
EDT Latitude Longitude Course Direction KTS MPH feet Rate Location/Type
Tue 09:53:06 AM 29.9517 -95.3039 113° Southeast 192 221 2,700  Level Houston Center
Tue 09:54:04 AM 29.9353 -95.2422 107° East 232 267 4,000 2,050 Climbing Houston Center
Tue 09:55:00 AM 29.9834 -94.9882 90° East  Level FlightAware Approximate
Tue 09:55:06 AM 29.9114 -95.1617 109° East 261 300 6,800  Level Houston Center
Tue 09:56:00 AM 29.9834 -94.8732 90° East  Level FlightAware Approximate
Tue 09:56:08 AM 29.8842 -95.0789 111° Southeast 273 314 9,100  Level Houston Center
Tue 09:57:00 AM 29.9834 -94.7581 90° East  Level FlightAware Approximate
Tue 09:57:10 AM 29.8786 -94.9819 94° East 317 365 10,700  Level Houston Center
Tue 09:58:12 AM 29.9022 -94.8450 79° East 360 414 12,200 1,500 Climbing Houston Center
Tue 09:59:14 AM 29.9222 -94.7283 79° East 370 426 13,800 1,500 Climbing Houston Center
Tue 10:00:16 AM 29.9433 -94.6092 78° East 377 434 15,300 1,366 Climbing Houston Center
Tue 10:01:17 AM 29.9636 -94.4886 79° East 382 440 16,600 1,073 Climbing Houston Center
Tue 10:02:19 AM 29.9858 -94.3639 78° East 396 456 17,500 919 Climbing Houston Center
Tue 10:03:21 AM 30.0053 -94.2331 80° East 412 474 18,500 1,161 Climbing Houston Center
Tue 10:04:23 AM 30.0206 -94.0989 82° East 421 484 19,900 1,452 Climbing Houston Center
Tue 10:05:25 AM 30.0414 -93.9364 82° East 427 491 21,500 1,403 Climbing Houston Center
Tue 10:06:27 AM 30.0581 -93.7986 82° East 435 501 22,800 726 Climbing Houston Center
Tue 10:07:29 AM 30.0758 -93.6569 82° East 446 513 23,000 97 Climbing Houston Center
Tue 10:08:31 AM 30.0947 -93.4922 82° East 472 543 23,000  Level Houston Center
Tue 10:09:33 AM 30.1122 -93.3378 82° East 485 558 23,000  Level Houston Center
Tue 10:10:35 AM 30.1317 -93.1839 82° East 487 560 23,000  Level Houston Center
Tue 10:11:37 AM 30.1544 -93.0314 80° East 485 558 23,000  Level Houston Center
Tue 10:12:39 AM 30.1850 -92.8792 77° East 489 563 23,000  Level Houston Center
Tue 10:13:41 AM 30.2203 -92.6986 77° East 483 556 23,000  Level Houston Center
Tue 10:14:44 AM 30.2497 -92.5486 77° East 482 555 23,000 -288 Level Houston Center
Tue 10:15:46 AM 30.2783 -92.3967 78° East 484 557 22,400 -1,113 Descending Houston Center
Tue 10:16:48 AM 30.3067 -92.2492 77° East 478 550 20,700 -2,226 Descending Houston Center
Tue 10:17:50 AM 30.3342 -92.1075 77° East 462 532 17,800 -2,806 Descending Houston Center
Tue 10:18:52 AM 30.3642 -91.9508 77° East 419 482 14,900 -2,371 Descending Houston Center
Tue 10:19:54 AM 30.3856 -91.8311 78° East 390 449 12,900 -1,790 Descending Houston Center
Tue 10:20:56 AM 30.4264 -91.7261 66° East 368 423 11,200 -1,452 Descending Houston Center
Tue 10:21:58 AM 30.4789 -91.6497 51° Northeast 323 372 9,900 -1,500 Descending Houston Center
Tue 10:23:00 AM 30.5281 -91.5772 52° Northeast 299 344 8,100 -1,935 Descending Houston Center
Tue 10:24:02 AM 30.5928 -91.4956 47° Northeast 289 333 5,900 -2,016 Descending Houston Center
Tue 10:25:05 AM 30.6528 -91.4417 38° Northeast 279 321 3,900 -1,536 Descending Houston Center
Tue 10:26:07 AM 30.7103 -91.3906 37° Northeast 273 314 2,700 -1,161 Descending Houston Center
Tue 10:28:00 AM 30.5895 -91.2265 131° Southeast  Level Estimated

Login

Don't have an account? Register now (free) for customized features, flight alerts, and more!